createdAt,value
2023-04-09T00:01:11.865Z,1.54
2023-04-09T00:03:13.405Z,1.49
2023-04-09T00:05:15.297Z,1.43
2023-04-09T00:07:16.836Z,1.33
2023-04-09T00:09:18.357Z,1.40
2023-04-09T00:11:19.908Z,1.48
2023-04-09T00:13:31.890Z,1.59
2023-04-09T00:15:39.886Z,1.61
2023-04-09T00:17:41.454Z,1.55
2023-04-09T00:19:42.980Z,1.57
2023-04-09T00:21:44.727Z,1.66
2023-04-09T00:23:46.215Z,1.71
2023-04-09T00:25:47.706Z,1.79
2023-04-09T00:27:49.620Z,1.81
2023-04-09T00:29:53.960Z,1.86
2023-04-09T00:31:58.641Z,1.89
2023-04-09T00:34:00.449Z,1.93
2023-04-09T00:36:02.152Z,2.07
2023-04-09T00:38:03.724Z,2.23
2023-04-09T00:40:06.453Z,2.46
2023-04-09T00:42:08.191Z,2.58
2023-04-09T00:44:09.866Z,2.65
2023-04-09T00:46:11.563Z,2.78
2023-04-09T00:48:13.947Z,2.95
2023-04-09T00:50:17.002Z,3.07
2023-04-09T00:52:18.813Z,3.25
2023-04-09T00:54:20.500Z,3.38
2023-04-09T00:56:23.602Z,3.48
2023-04-09T00:58:25.326Z,3.59
2023-04-09T01:00:27.619Z,3.69
2023-04-09T01:02:30.820Z,3.84
2023-04-09T01:04:32.999Z,3.86
2023-04-09T01:06:55.744Z,4.04
2023-04-09T01:08:57.268Z,4.08
2023-04-09T01:11:20.911Z,4.12
2023-04-09T01:13:34.860Z,4.28
2023-04-09T01:15:44.195Z,4.29
2023-04-09T01:17:52.077Z,4.33
2023-04-09T01:20:12.493Z,4.40
2023-04-09T01:22:32.604Z,4.54
2023-04-09T01:24:47.248Z,4.49
2023-04-09T01:27:14.771Z,4.55
2023-04-09T01:29:32.204Z,4.58
2023-04-09T01:31:38.863Z,4.54
2023-04-09T01:33:44.620Z,4.65
2023-04-09T01:35:48.399Z,4.76
2023-04-09T01:37:52.211Z,4.87
2023-04-09T01:39:53.836Z,4.97
2023-04-09T01:41:58.702Z,5.06
2023-04-09T01:44:03.151Z,5.06
2023-04-09T01:46:04.889Z,4.85
2023-04-09T01:48:06.885Z,4.77
2023-04-09T01:50:08.980Z,4.89
2023-04-09T01:52:10.792Z,5.00
2023-04-09T01:54:12.728Z,5.10
2023-04-09T01:56:14.397Z,5.10
2023-04-09T01:58:15.946Z,5.13
2023-04-09T02:00:17.703Z,5.15
2023-04-09T02:02:33.499Z,5.15
2023-04-09T02:04:46.671Z,4.95
2023-04-09T02:07:08.053Z,4.88
2023-04-09T02:09:11.899Z,4.90
2023-04-09T02:11:14.913Z,4.92
2023-04-09T02:13:18.856Z,5.05
2023-04-09T02:15:21.618Z,5.15
2023-04-09T02:17:23.337Z,5.26
2023-04-09T02:19:25.160Z,5.35
2023-04-09T02:21:28.483Z,5.39
2023-04-09T02:23:32.292Z,5.41
2023-04-09T02:25:33.894Z,5.32
2023-04-09T02:27:35.744Z,5.29
2023-04-09T02:29:38.154Z,5.34
2023-04-09T02:31:39.668Z,5.27
2023-04-09T02:33:41.378Z,5.21
2023-04-09T02:35:42.902Z,5.30
2023-04-09T02:37:44.367Z,5.36
2023-04-09T02:39:45.884Z,5.38
2023-04-09T02:41:47.465Z,5.47
2023-04-09T02:43:48.980Z,5.41
2023-04-09T02:45:50.530Z,5.29
2023-04-09T02:47:52.039Z,5.25
2023-04-09T02:49:53.584Z,5.33
2023-04-09T02:51:55.248Z,5.17
2023-04-09T02:53:56.832Z,5.18
2023-04-09T02:55:58.477Z,5.06
2023-04-09T02:58:00.160Z,5.10
2023-04-09T03:00:01.668Z,4.95
2023-04-09T03:02:03.293Z,4.81
2023-04-09T03:04:05.100Z,4.74
2023-04-09T03:06:06.729Z,4.87
2023-04-09T03:08:08.414Z,4.95
2023-04-09T03:10:10.273Z,4.93
2023-04-09T03:12:11.743Z,4.93
2023-04-09T03:14:13.221Z,4.92
2023-04-09T03:16:15.315Z,4.99
2023-04-09T03:18:16.862Z,4.91
2023-04-09T03:20:18.457Z,4.99
2023-04-09T03:22:19.983Z,4.89
2023-04-09T03:24:21.649Z,4.86
2023-04-09T03:26:23.798Z,4.87
2023-04-09T03:28:25.329Z,4.93
2023-04-09T03:30:29.275Z,5.04
2023-04-09T03:32:32.117Z,5.04
2023-04-09T03:34:33.598Z,4.99
2023-04-09T03:36:35.324Z,4.87
2023-04-09T03:38:38.434Z,4.93
2023-04-09T03:40:45.932Z,4.99
2023-04-09T03:42:47.441Z,5.10
2023-04-09T03:44:54.269Z,5.24
2023-04-09T03:47:10.570Z,5.16
2023-04-09T03:49:13.403Z,5.02
2023-04-09T03:51:18.714Z,4.98
2023-04-09T03:53:26.286Z,4.96
2023-04-09T03:55:34.736Z,4.90
2023-04-09T03:57:40.031Z,4.97
2023-04-09T03:59:45.744Z,5.14
2023-04-09T04:01:50.747Z,5.24
2023-04-09T04:03:52.397Z,5.13
2023-04-09T04:06:04.005Z,4.93
2023-04-09T04:08:16.442Z,4.83
2023-04-09T04:10:18.218Z,4.78
2023-04-09T04:12:21.710Z,4.78
2023-04-09T04:14:35.426Z,4.84
2023-04-09T04:16:44.625Z,5.05
2023-04-09T04:18:50.080Z,5.28
2023-04-09T04:20:52.181Z,5.02
2023-04-09T04:22:53.732Z,5.05
2023-04-09T04:24:56.944Z,5.13
2023-04-09T04:26:59.529Z,5.24
2023-04-09T04:29:06.432Z,5.36
2023-04-09T04:31:22.028Z,5.26
2023-04-09T04:33:24.706Z,5.20
2023-04-09T04:35:29.073Z,5.30
2023-04-09T04:37:33.999Z,5.35
2023-04-09T04:39:35.907Z,5.42
2023-04-09T04:41:42.375Z,5.45
2023-04-09T04:43:57.375Z,5.54
2023-04-09T04:46:00.166Z,5.58
2023-04-09T04:48:04.353Z,5.58
2023-04-09T04:50:06.988Z,5.65
2023-04-09T04:52:17.980Z,5.64
2023-04-09T04:54:23.557Z,5.61
2023-04-09T04:56:28.975Z,5.66
2023-04-09T04:58:37.059Z,5.69
2023-04-09T05:00:38.776Z,5.86
2023-04-09T05:02:40.400Z,5.92
2023-04-09T05:04:57.620Z,5.90
2023-04-09T05:07:06.730Z,5.68
2023-04-09T05:09:11.391Z,5.71
2023-04-09T05:11:21.157Z,5.77
2023-04-09T05:13:24.063Z,5.86
2023-04-09T05:15:26.988Z,5.77
2023-04-09T05:17:28.881Z,5.80
2023-04-09T05:19:30.854Z,5.87
2023-04-09T05:21:36.023Z,5.77
2023-04-09T05:23:38.017Z,5.72
2023-04-09T05:25:39.700Z,5.86
2023-04-09T05:27:45.243Z,5.69
2023-04-09T05:29:46.924Z,5.78
2023-04-09T05:31:48.565Z,5.88
2023-04-09T05:34:04.476Z,5.93
2023-04-09T05:36:17.261Z,5.79
2023-04-09T05:38:18.764Z,5.80
2023-04-09T05:40:27.668Z,5.79
2023-04-09T05:42:29.640Z,5.74
2023-04-09T05:44:37.798Z,5.77
2023-04-09T05:46:43.976Z,5.72
2023-04-09T05:48:47.828Z,5.84
2023-04-09T05:50:55.614Z,5.77
2023-04-09T05:53:00.489Z,5.67
2023-04-09T05:55:09.968Z,5.64
2023-04-09T05:57:18.176Z,5.71
2023-04-09T05:59:27.229Z,5.78
2023-04-09T06:01:29.583Z,5.96
2023-04-09T06:03:31.163Z,6.17
2023-04-09T06:05:33.126Z,6.22
2023-04-09T06:07:34.668Z,6.09
2023-04-09T06:09:36.572Z,6.15
2023-04-09T06:11:38.411Z,6.23
2023-04-09T06:13:40.416Z,6.54
2023-04-09T06:15:42.296Z,6.11
2023-04-09T06:17:43.898Z,6.19
2023-04-09T06:19:45.414Z,6.22
2023-04-09T06:21:47.041Z,6.29
2023-04-09T06:23:48.787Z,6.46
2023-04-09T06:25:50.312Z,6.24
2023-04-09T06:27:52.057Z,6.35
2023-04-09T06:29:53.656Z,6.32
2023-04-09T06:31:55.178Z,6.39
2023-04-09T06:33:56.814Z,6.26
2023-04-09T06:35:58.946Z,6.12
2023-04-09T06:38:00.477Z,6.24
2023-04-09T06:40:02.279Z,6.48
2023-04-09T06:42:03.939Z,6.57
2023-04-09T06:44:15.676Z,6.69
2023-04-09T06:46:19.920Z,6.77
2023-04-09T06:48:21.585Z,6.95
2023-04-09T06:50:23.101Z,7.01
2023-04-09T06:52:24.720Z,6.98
2023-04-09T06:54:26.260Z,7.12
2023-04-09T06:56:27.738Z,7.09
2023-04-09T06:58:29.347Z,7.19
2023-04-09T07:00:30.970Z,7.27
2023-04-09T07:02:32.861Z,7.37
2023-04-09T07:04:34.870Z,7.35
2023-04-09T07:06:36.560Z,7.28
2023-04-09T07:08:38.468Z,7.38
2023-04-09T07:10:40.241Z,7.44
2023-04-09T07:12:41.891Z,7.62
2023-04-09T07:14:43.405Z,7.73
2023-04-09T07:16:46.433Z,7.61
2023-04-09T07:18:48.042Z,7.29
2023-04-09T07:20:49.714Z,7.32
2023-04-09T07:22:51.299Z,7.42
2023-04-09T07:24:56.373Z,7.60
2023-04-09T07:26:57.973Z,7.64
2023-04-09T07:28:59.508Z,7.80
2023-04-09T07:31:02.963Z,7.75
2023-04-09T07:33:04.716Z,7.45
2023-04-09T07:35:07.859Z,7.53
2023-04-09T07:37:09.591Z,7.81
2023-04-09T07:39:11.209Z,8.01
2023-04-09T07:41:12.988Z,8.03
2023-04-09T07:43:14.537Z,8.26
2023-04-09T07:45:17.201Z,8.71
2023-04-09T07:47:18.685Z,9.06
2023-04-09T07:49:21.406Z,9.27
2023-04-09T07:51:22.869Z,9.51
2023-04-09T07:53:24.465Z,9.82
2023-04-09T07:55:26.168Z,10.00
2023-04-09T07:57:28.075Z,10.21
2023-04-09T07:59:30.739Z,10.38
2023-04-09T08:01:32.316Z,10.66
2023-04-09T08:03:36.105Z,10.73
2023-04-09T08:05:38.052Z,10.51
2023-04-09T08:07:39.630Z,10.67
2023-04-09T08:09:41.373Z,10.82
2023-04-09T08:11:45.492Z,11.06
2023-04-09T08:13:46.955Z,11.09
2023-04-09T08:15:48.426Z,10.66
2023-04-09T08:17:50.034Z,10.49
2023-04-09T08:19:51.557Z,10.55
2023-04-09T08:21:53.097Z,10.97
2023-04-09T08:23:59.205Z,11.00
2023-04-09T08:26:00.749Z,10.94
2023-04-09T08:28:02.362Z,10.93
2023-04-09T08:30:04.375Z,11.12
2023-04-09T08:32:06.092Z,11.40
2023-04-09T08:34:07.805Z,11.66
2023-04-09T08:36:11.422Z,11.75
2023-04-09T08:38:12.980Z,12.34
2023-04-09T08:40:14.708Z,12.05
2023-04-09T08:42:16.555Z,11.77
2023-04-09T08:44:18.371Z,11.82
2023-04-09T08:46:20.446Z,11.81
2023-04-09T08:48:22.707Z,12.03
2023-04-09T08:50:24.453Z,12.84
2023-04-09T08:52:33.829Z,14.32
2023-04-09T08:54:35.570Z,15.09
2023-04-09T08:56:37.229Z,15.47
2023-04-09T08:58:42.790Z,15.88
2023-04-09T09:00:44.591Z,15.58
2023-04-09T09:03:03.346Z,15.32
2023-04-09T09:05:05.417Z,15.86
2023-04-09T09:07:07.261Z,16.82
2023-04-09T09:09:11.263Z,16.78
2023-04-09T09:11:26.777Z,16.86
2023-04-09T09:13:28.375Z,16.13
2023-04-09T09:15:30.092Z,15.82
2023-04-09T09:17:31.708Z,15.21
2023-04-09T09:19:34.080Z,13.83
2023-04-09T09:21:36.502Z,12.64
2023-04-09T09:23:38.620Z,12.21
2023-04-09T09:25:43.405Z,12.09
2023-04-09T09:27:45.176Z,11.91
2023-04-09T09:29:46.829Z,12.19
2023-04-09T09:31:52.885Z,11.84
2023-04-09T09:33:54.760Z,11.00
2023-04-09T09:35:57.590Z,12.01
2023-04-09T09:38:06.722Z,12.56
2023-04-09T09:40:08.870Z,12.72
2023-04-09T09:42:10.425Z,12.91
2023-04-09T09:44:29.905Z,13.09
2023-04-09T09:46:35.642Z,13.01
2023-04-09T09:48:37.633Z,12.86
2023-04-09T09:50:41.811Z,12.93
2023-04-09T09:52:46.008Z,12.29
2023-04-09T09:54:52.717Z,11.67
2023-04-09T09:56:57.953Z,12.01
2023-04-09T09:59:07.254Z,12.40
2023-04-09T10:01:12.801Z,12.55
2023-04-09T10:03:21.317Z,12.55
2023-04-09T10:05:26.788Z,12.78
2023-04-09T10:07:28.989Z,11.74
2023-04-09T10:09:31.271Z,13.30
2023-04-09T10:11:38.120Z,14.54
2023-04-09T10:13:54.520Z,15.53
2023-04-09T10:15:56.518Z,15.77
2023-04-09T10:17:58.113Z,16.35
2023-04-09T10:20:10.373Z,16.68
2023-04-09T10:22:15.903Z,17.19
2023-04-09T10:24:17.652Z,17.24
2023-04-09T10:26:20.338Z,16.84
2023-04-09T10:28:23.156Z,16.88
2023-04-09T10:30:32.890Z,16.21
2023-04-09T10:32:36.033Z,15.07
2023-04-09T10:34:43.336Z,15.87
2023-04-09T10:36:53.540Z,16.17
2023-04-09T10:38:55.672Z,16.54
2023-04-09T10:40:57.475Z,16.54
2023-04-09T10:43:00.441Z,16.41
2023-04-09T10:45:08.204Z,16.62
2023-04-09T10:47:10.849Z,16.53
2023-04-09T10:49:20.722Z,16.28
2023-04-09T10:51:22.414Z,16.50
2023-04-09T10:53:25.622Z,14.78
2023-04-09T10:55:37.013Z,15.23
2023-04-09T10:57:38.665Z,16.17
2023-04-09T10:59:42.120Z,15.86
2023-04-09T11:01:52.662Z,15.23
2023-04-09T11:04:11.321Z,15.99
2023-04-09T11:06:17.694Z,14.73
2023-04-09T11:08:19.820Z,15.32
2023-04-09T11:10:21.889Z,16.13
2023-04-09T11:12:23.383Z,16.94
2023-04-09T11:14:25.661Z,16.85
2023-04-09T11:16:29.540Z,16.88
2023-04-09T11:18:33.765Z,16.57
2023-04-09T11:20:36.041Z,16.90
2023-04-09T11:22:38.300Z,16.65
2023-04-09T11:24:43.940Z,17.77
2023-04-09T11:26:47.162Z,18.47
2023-04-09T11:28:48.733Z,19.04
2023-04-09T11:30:51.441Z,18.55
2023-04-09T11:32:53.098Z,18.39
2023-04-09T11:34:54.754Z,18.73
2023-04-09T11:36:56.972Z,17.00
2023-04-09T11:38:59.068Z,16.01
2023-04-09T11:41:01.733Z,16.24
2023-04-09T11:43:03.293Z,17.04
2023-04-09T11:45:05.544Z,16.54
2023-04-09T11:47:09.266Z,16.49
2023-04-09T11:49:11.432Z,17.39
2023-04-09T11:51:13.156Z,17.39
2023-04-09T11:53:22.615Z,17.26
2023-04-09T11:55:29.166Z,17.18
2023-04-09T11:57:46.787Z,18.20
2023-04-09T11:59:48.496Z,16.02
2023-04-09T12:01:51.365Z,15.45
2023-04-09T12:03:54.588Z,16.31
2023-04-09T12:05:56.288Z,14.64
2023-04-09T12:08:08.425Z,14.18
2023-04-09T12:10:10.707Z,14.96
2023-04-09T12:12:12.255Z,15.15
2023-04-09T12:14:17.287Z,14.78
2023-04-09T12:16:21.121Z,14.49
2023-04-09T12:18:23.566Z,14.72
2023-04-09T12:20:30.026Z,15.17
2023-04-09T12:22:31.597Z,16.29
2023-04-09T12:24:33.182Z,17.02
2023-04-09T12:26:34.717Z,17.29
2023-04-09T12:28:36.300Z,18.22
2023-04-09T12:30:38.311Z,15.67
2023-04-09T12:32:39.896Z,15.68
2023-04-09T12:34:41.921Z,17.42
2023-04-09T12:36:43.696Z,18.31
2023-04-09T12:38:45.497Z,18.82
2023-04-09T12:40:47.146Z,19.07
2023-04-09T12:42:48.781Z,18.27
2023-04-09T12:44:50.555Z,18.30
2023-04-09T12:46:52.037Z,18.94
2023-04-09T12:48:53.987Z,19.13
2023-04-09T12:50:55.844Z,17.98
2023-04-09T12:52:57.432Z,17.21
2023-04-09T12:54:58.986Z,18.53
2023-04-09T12:57:00.562Z,18.76
2023-04-09T12:59:02.030Z,16.69
2023-04-09T13:01:04.200Z,16.86
2023-04-09T13:03:06.629Z,16.84
2023-04-09T13:05:08.464Z,16.25
2023-04-09T13:07:09.996Z,17.17
2023-04-09T13:09:11.498Z,16.27
2023-04-09T13:11:13.255Z,15.69
2023-04-09T13:13:14.889Z,17.43
2023-04-09T13:15:16.413Z,18.81
2023-04-09T13:17:18.181Z,19.32
2023-04-09T13:19:19.885Z,20.00
2023-04-09T13:21:21.424Z,18.65
2023-04-09T13:23:23.240Z,18.36
2023-04-09T13:25:24.766Z,18.70
2023-04-09T13:27:26.423Z,18.66
2023-04-09T13:29:29.284Z,16.12
2023-04-09T13:31:31.040Z,17.56
2023-04-09T13:33:32.509Z,19.31
2023-04-09T13:35:34.042Z,20.17
2023-04-09T13:37:35.673Z,21.80
2023-04-09T13:39:37.239Z,22.20
2023-04-09T13:41:38.811Z,21.53
2023-04-09T13:43:40.336Z,20.85
2023-04-09T13:45:41.815Z,20.23
2023-04-09T13:47:43.506Z,18.54
2023-04-09T13:49:45.238Z,18.31
2023-04-09T13:51:48.594Z,18.82
2023-04-09T13:53:50.754Z,19.43
2023-04-09T13:55:52.375Z,19.71
2023-04-09T13:57:53.886Z,18.73
2023-04-09T13:59:55.484Z,18.62
2023-04-09T14:01:57.159Z,18.42
2023-04-09T14:03:58.840Z,17.71
2023-04-09T14:06:01.614Z,17.87
2023-04-09T14:08:03.202Z,17.22
2023-04-09T14:10:05.143Z,17.56
2023-04-09T14:12:06.670Z,17.36
2023-04-09T14:14:08.233Z,16.70
2023-04-09T14:16:10.220Z,16.30
2023-04-09T14:18:12.012Z,14.40
2023-04-09T14:20:13.573Z,14.38
2023-04-09T14:22:15.266Z,14.05
2023-04-09T14:24:16.787Z,14.20
2023-04-09T14:26:19.428Z,14.21
2023-04-09T14:28:21.945Z,14.55
2023-04-09T14:30:23.484Z,15.04
2023-04-09T14:32:25.115Z,15.29
2023-04-09T14:34:31.308Z,15.54
2023-04-09T14:36:32.899Z,15.19
2023-04-09T14:38:34.828Z,15.29
2023-04-09T14:40:36.534Z,14.88
2023-04-09T14:42:39.422Z,14.57
2023-04-09T14:44:41.129Z,14.51
2023-04-09T14:46:43.618Z,14.64
2023-04-09T14:48:45.172Z,14.72
2023-04-09T14:50:46.648Z,14.32
2023-04-09T14:52:48.427Z,13.90
2023-04-09T14:54:50.180Z,13.92
2023-04-09T14:56:52.300Z,13.67
2023-04-09T14:58:54.414Z,13.85
2023-04-09T15:00:56.603Z,13.01
2023-04-09T15:02:58.443Z,13.31
2023-04-09T15:05:00.690Z,13.64
2023-04-09T15:07:02.264Z,13.54
2023-04-09T15:09:03.836Z,13.82
2023-04-09T15:11:05.473Z,15.45
2023-04-09T15:13:07.031Z,16.88
2023-04-09T15:15:09.340Z,18.11
2023-04-09T15:17:11.054Z,19.33
2023-04-09T15:19:12.648Z,19.80
2023-04-09T15:21:14.544Z,20.34
2023-04-09T15:23:16.212Z,18.62
2023-04-09T15:25:17.907Z,18.27
2023-04-09T15:27:19.741Z,18.20
2023-04-09T15:29:21.371Z,16.93
2023-04-09T15:31:22.864Z,17.02
2023-04-09T15:33:24.455Z,16.43
2023-04-09T15:35:29.147Z,15.74
2023-04-09T15:37:31.049Z,15.67
2023-04-09T15:39:35.282Z,16.23
2023-04-09T15:41:37.865Z,16.23
2023-04-09T15:43:39.469Z,15.61
2023-04-09T15:45:41.305Z,15.18
2023-04-09T15:47:44.702Z,15.30
2023-04-09T15:49:46.566Z,15.42
2023-04-09T15:51:48.582Z,15.69
2023-04-09T15:53:50.206Z,15.36
2023-04-09T15:55:51.914Z,15.79
2023-04-09T15:57:54.979Z,16.10
2023-04-09T15:59:57.868Z,15.95
2023-04-09T16:01:59.580Z,15.48
2023-04-09T16:04:02.375Z,15.82
2023-04-09T16:06:07.320Z,15.46
2023-04-09T16:08:09.113Z,15.43
2023-04-09T16:10:11.086Z,16.02
2023-04-09T16:12:14.042Z,16.48
2023-04-09T16:14:15.707Z,16.80
2023-04-09T16:16:20.567Z,16.85
2023-04-09T16:18:23.211Z,16.50
2023-04-09T16:20:24.808Z,16.38
2023-04-09T16:22:26.642Z,16.62
2023-04-09T16:24:28.603Z,17.36
2023-04-09T16:26:30.279Z,17.86
2023-04-09T16:28:31.879Z,17.49
2023-04-09T16:30:33.545Z,16.82
2023-04-09T16:32:35.296Z,17.57
2023-04-09T16:34:36.999Z,18.34
2023-04-09T16:36:38.520Z,17.92
2023-04-09T16:38:40.243Z,17.52
2023-04-09T16:40:41.818Z,18.11
2023-04-09T16:42:43.761Z,18.08
2023-04-09T16:44:45.243Z,18.40
2023-04-09T16:46:46.784Z,18.86
2023-04-09T16:48:48.354Z,17.65
2023-04-09T16:50:50.154Z,16.33
2023-04-09T16:52:51.692Z,16.95
2023-04-09T16:54:53.221Z,17.74
2023-04-09T16:56:55.815Z,18.24
2023-04-09T16:58:57.475Z,17.73
2023-04-09T17:00:59.174Z,18.38
2023-04-09T17:03:00.856Z,18.19
2023-04-09T17:05:04.137Z,18.31
2023-04-09T17:07:05.748Z,16.81
2023-04-09T17:09:07.407Z,17.29
2023-04-09T17:11:09.027Z,17.71
2023-04-09T17:13:11.016Z,17.74
2023-04-09T17:15:12.730Z,17.86
2023-04-09T17:17:14.470Z,17.40
2023-04-09T17:19:16.031Z,17.15
2023-04-09T17:21:17.502Z,17.14
2023-04-09T17:23:19.268Z,17.11
2023-04-09T17:25:21.305Z,16.75
2023-04-09T17:27:22.813Z,16.71
2023-04-09T17:29:24.279Z,16.27
2023-04-09T17:31:29.138Z,15.98
2023-04-09T17:33:31.757Z,15.02
2023-04-09T17:35:33.949Z,15.26
2023-04-09T17:37:36.318Z,15.22
2023-04-09T17:39:38.127Z,15.13
2023-04-09T17:41:39.639Z,14.89
2023-04-09T17:43:41.184Z,13.91
2023-04-09T17:45:43.179Z,13.91
2023-04-09T17:47:45.558Z,13.62
2023-04-09T17:49:47.420Z,13.38
2023-04-09T17:51:49.019Z,13.11
2023-04-09T17:53:53.519Z,12.81
2023-04-09T17:55:55.002Z,12.49
2023-04-09T17:57:56.504Z,12.46
2023-04-09T17:59:58.045Z,11.94
2023-04-09T18:02:00.178Z,11.89
2023-04-09T18:04:02.191Z,11.47
2023-04-09T18:06:04.089Z,11.33
2023-04-09T18:08:05.891Z,11.17
2023-04-09T18:10:07.805Z,10.92
2023-04-09T18:12:09.359Z,10.77
2023-04-09T18:14:11.190Z,10.39
2023-04-09T18:16:15.034Z,10.08
2023-04-09T18:18:16.626Z,10.05
2023-04-09T18:20:18.225Z,9.19
2023-04-09T18:22:19.868Z,9.11
2023-04-09T18:24:21.401Z,8.90
2023-04-09T18:26:22.998Z,8.27
2023-04-09T18:28:26.066Z,8.42
2023-04-09T18:30:27.822Z,8.37
2023-04-09T18:32:29.665Z,8.14
2023-04-09T18:34:31.425Z,8.30
2023-04-09T18:36:33.500Z,8.30
2023-04-09T18:38:35.047Z,8.31
2023-04-09T18:40:43.725Z,7.85
2023-04-09T18:42:50.160Z,7.64
2023-04-09T18:44:52.034Z,7.76
2023-04-09T18:46:53.571Z,7.79
2023-04-09T18:48:55.373Z,7.79
2023-04-09T18:50:57.187Z,7.59
2023-04-09T18:52:58.748Z,7.41
2023-04-09T18:55:00.354Z,7.59
2023-04-09T18:57:04.146Z,7.62
2023-04-09T18:59:08.138Z,7.57
2023-04-09T19:01:11.703Z,7.09
2023-04-09T19:03:13.557Z,7.17
2023-04-09T19:05:15.331Z,7.15
2023-04-09T19:07:19.180Z,6.97
2023-04-09T19:09:21.405Z,6.90
2023-04-09T19:11:23.077Z,6.50
2023-04-09T19:13:24.631Z,6.43
2023-04-09T19:15:26.799Z,6.51
2023-04-09T19:17:28.422Z,6.58
2023-04-09T19:19:30.055Z,6.57
2023-04-09T19:21:31.760Z,6.56
2023-04-09T19:23:35.968Z,6.55
2023-04-09T19:25:37.989Z,6.52
2023-04-09T19:27:39.672Z,6.28
2023-04-09T19:29:44.696Z,6.31
2023-04-09T19:31:46.695Z,6.27
2023-04-09T19:33:48.279Z,6.30
2023-04-09T19:35:50.932Z,6.32
2023-04-09T19:37:53.150Z,6.23
2023-04-09T19:39:56.287Z,5.65
2023-04-09T19:41:58.165Z,5.84
2023-04-09T19:44:01.322Z,5.82
2023-04-09T19:46:08.399Z,5.85
2023-04-09T19:48:10.258Z,5.79
2023-04-09T19:50:11.931Z,5.74
2023-04-09T19:52:13.437Z,5.62
2023-04-09T19:54:16.455Z,5.55
2023-04-09T19:56:18.380Z,5.03
2023-04-09T19:58:19.987Z,5.26
2023-04-09T20:00:21.580Z,5.33
2023-04-09T20:02:23.819Z,5.32
2023-04-09T20:04:25.640Z,5.16
2023-04-09T20:06:28.767Z,5.18
2023-04-09T20:08:30.253Z,5.11
2023-04-09T20:10:31.818Z,5.04
2023-04-09T20:12:34.288Z,5.05
2023-04-09T20:14:38.046Z,5.05
2023-04-09T20:16:39.710Z,5.01
2023-04-09T20:18:43.926Z,4.55
2023-04-09T20:20:45.581Z,4.40
2023-04-09T20:22:55.550Z,4.28
2023-04-09T20:24:59.693Z,4.21
2023-04-09T20:27:01.551Z,4.43
2023-04-09T20:29:03.104Z,4.45
2023-04-09T20:31:05.929Z,4.44
2023-04-09T20:33:07.499Z,4.34
2023-04-09T20:35:10.811Z,4.46
2023-04-09T20:37:12.597Z,4.45
2023-04-09T20:39:14.287Z,4.32
2023-04-09T20:41:15.768Z,4.34
2023-04-09T20:43:17.516Z,4.36
2023-04-09T20:45:19.056Z,4.40
2023-04-09T20:47:21.856Z,4.36
2023-04-09T20:49:23.895Z,4.41
2023-04-09T20:51:25.563Z,4.40
2023-04-09T20:53:27.128Z,4.35
2023-04-09T20:55:29.475Z,4.24
2023-04-09T20:57:31.016Z,4.08
2023-04-09T20:59:32.649Z,3.90
2023-04-09T21:01:35.702Z,3.84
2023-04-09T21:03:38.713Z,3.88
2023-04-09T21:05:40.851Z,3.89
2023-04-09T21:07:42.302Z,3.69
2023-04-09T21:09:44.061Z,3.70
2023-04-09T21:11:45.998Z,3.68
2023-04-09T21:13:54.699Z,3.84
2023-04-09T21:15:57.703Z,3.85
2023-04-09T21:17:59.380Z,3.81
2023-04-09T21:20:00.925Z,3.87
2023-04-09T21:22:02.598Z,3.88
2023-04-09T21:24:04.146Z,3.79
2023-04-09T21:26:05.963Z,3.75
2023-04-09T21:28:07.860Z,3.67
2023-04-09T21:30:09.594Z,3.49
2023-04-09T21:32:11.411Z,3.48
2023-04-09T21:34:13.022Z,3.44
2023-04-09T21:36:14.646Z,3.54
2023-04-09T21:38:16.403Z,3.51
2023-04-09T21:40:17.954Z,3.48
2023-04-09T21:42:19.478Z,3.50
2023-04-09T21:44:21.165Z,3.57
2023-04-09T21:46:22.763Z,3.56
2023-04-09T21:48:26.254Z,3.48
2023-04-09T21:50:27.930Z,3.43
2023-04-09T21:52:29.491Z,3.46
2023-04-09T21:54:31.051Z,3.40
2023-04-09T21:56:33.316Z,3.32
2023-04-09T21:58:34.797Z,3.37
2023-04-09T22:00:36.612Z,3.34
2023-04-09T22:02:39.273Z,3.31
2023-04-09T22:04:43.830Z,3.30
2023-04-09T22:06:46.654Z,3.22
2023-04-09T22:08:55.736Z,3.16
2023-04-09T22:10:58.599Z,2.82
2023-04-09T22:13:00.162Z,2.92
2023-04-09T22:15:02.826Z,2.93
2023-04-09T22:17:04.380Z,2.79
2023-04-09T22:19:06.085Z,2.82
2023-04-09T22:21:07.669Z,2.81
2023-04-09T22:23:09.651Z,2.79
2023-04-09T22:25:12.652Z,2.86
2023-04-09T22:27:14.327Z,2.95
2023-04-09T22:29:16.063Z,2.88
2023-04-09T22:31:17.714Z,2.87
2023-04-09T22:33:19.424Z,2.86
2023-04-09T22:35:21.078Z,2.72
2023-04-09T22:37:22.811Z,2.85
2023-04-09T22:39:24.540Z,2.83
2023-04-09T22:41:26.231Z,2.92
2023-04-09T22:43:27.734Z,2.75
2023-04-09T22:45:30.482Z,2.78
2023-04-09T22:47:31.994Z,2.87
2023-04-09T22:49:33.467Z,2.86
2023-04-09T22:51:35.070Z,2.75
2023-04-09T22:53:36.759Z,2.69
2023-04-09T22:55:38.328Z,2.73
2023-04-09T22:57:42.662Z,2.63
2023-04-09T22:59:44.210Z,2.57
2023-04-09T23:01:45.871Z,2.59
2023-04-09T23:03:49.054Z,2.61
2023-04-09T23:05:50.945Z,2.52
2023-04-09T23:07:52.519Z,2.24
2023-04-09T23:09:56.739Z,2.40
2023-04-09T23:11:58.284Z,2.46
2023-04-09T23:13:59.759Z,2.28
2023-04-09T23:16:07.460Z,2.40
2023-04-09T23:18:09.089Z,2.39
2023-04-09T23:20:14.920Z,2.40
2023-04-09T23:22:16.639Z,2.19
2023-04-09T23:24:19.153Z,1.92
2023-04-09T23:26:20.666Z,2.15
2023-04-09T23:28:24.789Z,2.17
2023-04-09T23:30:27.166Z,2.21
2023-04-09T23:32:28.736Z,2.22
2023-04-09T23:34:30.382Z,2.34
2023-04-09T23:36:32.615Z,2.36
2023-04-09T23:38:34.212Z,2.21
2023-04-09T23:40:35.828Z,2.26
2023-04-09T23:42:37.870Z,2.31
2023-04-09T23:44:39.493Z,2.23
2023-04-09T23:46:41.616Z,2.17
2023-04-09T23:48:43.271Z,2.11
2023-04-09T23:50:44.798Z,2.15
2023-04-09T23:52:47.994Z,2.26
2023-04-09T23:54:53.267Z,2.17
2023-04-09T23:56:56.393Z,2.11
2023-04-09T23:58:58.146Z,2.28
